createdAt,value
2022-12-14T00:04:30.676Z,101330.47
2022-12-14T00:09:27.876Z,101303.84
2022-12-14T00:14:25.289Z,101366.75
2022-12-14T00:19:23.638Z,101336.72
2022-12-14T00:24:21.310Z,101335.94
2022-12-14T00:29:18.490Z,101312.63
2022-12-14T00:34:15.644Z,101315.97
2022-12-14T00:39:14.856Z,101305.53
2022-12-14T00:44:15.590Z,101311.50
2022-12-14T00:49:12.616Z,101315.91
2022-12-14T00:54:12.608Z,101323.72
2022-12-14T00:59:09.530Z,101317.84
2022-12-14T01:04:18.955Z,101340.44
2022-12-14T01:09:17.493Z,101299.16
2022-12-14T01:14:16.676Z,101304.50
2022-12-14T01:19:15.171Z,101277.91
2022-12-14T01:24:12.133Z,101307.25
2022-12-14T01:29:11.557Z,101281.31
2022-12-14T01:34:09.335Z,101279.53
2022-12-14T01:39:09.372Z,101301.03
2022-12-14T01:44:39.687Z,101294.16
2022-12-14T01:49:42.679Z,101341.56
2022-12-14T01:54:48.787Z,101295.09
2022-12-14T01:59:46.946Z,101351.03
2022-12-14T02:04:51.837Z,101242.53
2022-12-14T02:09:50.995Z,101341.53
2022-12-14T02:14:48.975Z,101353.59
2022-12-14T02:19:48.832Z,101334.56
2022-12-14T02:25:16.717Z,101346.66
2022-12-14T02:30:17.539Z,101332.19
2022-12-14T02:35:23.187Z,101334.84
2022-12-14T02:40:28.328Z,101310.75
2022-12-14T02:45:35.928Z,101245.28
2022-12-14T02:50:41.350Z,101271.16
2022-12-14T02:55:42.581Z,101216.88
2022-12-14T03:00:41.542Z,101211.72
2022-12-14T03:05:38.407Z,101319.44
2022-12-14T03:10:39.548Z,101331.50
2022-12-14T03:15:41.517Z,101269.44
2022-12-14T03:20:44.179Z,101197.03
2022-12-14T03:25:44.308Z,101316.75
2022-12-14T03:31:00.038Z,101313.31
2022-12-14T03:36:03.658Z,101278.88
2022-12-14T03:41:11.619Z,101287.47
2022-12-14T03:46:14.712Z,101282.31
2022-12-14T03:51:21.377Z,101238.41
2022-12-14T03:56:24.089Z,101274.59
2022-12-14T04:01:32.252Z,101230.66
2022-12-14T04:06:36.229Z,101241.88
2022-12-14T04:11:58.478Z,101271.16
2022-12-14T04:17:18.747Z,101301.34
2022-12-14T04:22:21.421Z,101284.09
2022-12-14T04:27:23.807Z,101247.91
2022-12-14T04:32:28.489Z,101273.75
2022-12-14T04:37:27.737Z,101275.47
2022-12-14T04:42:33.022Z,101284.09
2022-12-14T04:47:35.434Z,101188.44
2022-12-14T04:52:38.785Z,101266.84
2022-12-14T04:57:41.597Z,101256.53
2022-12-14T05:02:56.954Z,101265.13
2022-12-14T05:08:00.210Z,101259.97
2022-12-14T05:13:04.534Z,101267.69
2022-12-14T05:18:04.393Z,101279.75
2022-12-14T05:23:04.218Z,101248.75
2022-12-14T05:28:01.173Z,101216.88
2022-12-14T05:32:58.108Z,101203.09
2022-12-14T05:37:55.931Z,101262.53
2022-12-14T05:43:02.923Z,101197.91
2022-12-14T05:47:59.834Z,101303.88
2022-12-14T05:53:07.696Z,101280.63
2022-12-14T05:58:04.611Z,101303.03
2022-12-14T06:03:01.487Z,101304.78
2022-12-14T06:08:02.167Z,101276.31
2022-12-14T06:12:59.139Z,101247.88
2022-12-14T06:18:01.479Z,101245.31
2022-12-14T06:22:59.183Z,101312.50
2022-12-14T06:27:56.059Z,101282.38
2022-12-14T06:32:52.852Z,101286.69
2022-12-14T06:37:49.964Z,101304.78
2022-12-14T06:42:48.353Z,101277.22
2022-12-14T06:47:45.318Z,101253.91
2022-12-14T06:52:44.881Z,101256.50
2022-12-14T06:57:44.776Z,101214.28
2022-12-14T07:02:42.535Z,101271.09
2022-12-14T07:07:40.443Z,101240.09
2022-12-14T07:12:37.308Z,101216.81
2022-12-14T07:17:36.410Z,101289.16
2022-12-14T07:22:34.920Z,101282.22
2022-12-14T07:27:32.386Z,101254.56
2022-12-14T07:32:29.501Z,101295.00
2022-12-14T07:37:26.707Z,101298.41
2022-12-14T07:42:24.290Z,101323.31
2022-12-14T07:47:21.267Z,101305.19
2022-12-14T07:52:18.368Z,101293.00
2022-12-14T07:57:18.115Z,101244.66
2022-12-14T08:02:16.158Z,101286.69
2022-12-14T08:07:36.514Z,101244.47
2022-12-14T08:12:34.019Z,101199.59
2022-12-14T08:17:32.954Z,101279.69
2022-12-14T08:22:32.766Z,101319.28
2022-12-14T08:27:30.362Z,101284.91
2022-12-14T08:32:33.941Z,101231.56
2022-12-14T08:37:32.542Z,101173.09
2022-12-14T08:42:32.714Z,101278.94
2022-12-14T08:47:31.908Z,101182.56
2022-12-14T08:52:38.962Z,101197.91
2022-12-14T08:57:43.442Z,101228.72
2022-12-14T09:02:43.188Z,101320.78
2022-12-14T09:07:43.499Z,101244.03
2022-12-14T09:12:42.566Z,101283.28
2022-12-14T09:17:44.920Z,101245.28
2022-12-14T09:22:46.242Z,101162.69
2022-12-14T09:28:07.171Z,101213.28
2022-12-14T09:33:10.871Z,101212.38
2022-12-14T09:38:08.829Z,101283.88
2022-12-14T09:43:18.550Z,101156.56
2022-12-14T09:48:26.892Z,101205.59
2022-12-14T09:53:26.074Z,101261.34
2022-12-14T09:58:27.428Z,101224.34
2022-12-14T10:03:51.796Z,101250.97
2022-12-14T10:08:58.655Z,101248.41
2022-12-14T10:14:08.917Z,101256.13
2022-12-14T10:19:20.619Z,101219.81
2022-12-14T10:24:24.061Z,101244.38
2022-12-14T10:29:34.897Z,101164.06
2022-12-14T10:34:34.118Z,101236.63
2022-12-14T10:39:43.929Z,101215.63
2022-12-14T10:45:09.746Z,101144.06
2022-12-14T10:50:20.121Z,101172.81
2022-12-14T10:55:21.641Z,101160.59
2022-12-14T11:00:26.106Z,101127.59
2022-12-14T11:05:36.450Z,101143.56
2022-12-14T11:10:36.368Z,101090.03
2022-12-14T11:15:36.614Z,101077.84
2022-12-14T11:20:33.884Z,101103.38
2022-12-14T11:25:50.606Z,101112.44
2022-12-14T11:30:57.388Z,101143.66
2022-12-14T11:35:54.791Z,101064.56
2022-12-14T11:40:52.422Z,101079.66
2022-12-14T11:45:51.084Z,101110.13
2022-12-14T11:50:49.781Z,101059.47
2022-12-14T11:55:53.477Z,101098.34
2022-12-14T12:00:55.251Z,101102.53
2022-12-14T12:05:53.926Z,101097.66
2022-12-14T12:10:53.168Z,101087.19
2022-12-14T12:15:53.588Z,101054.78
2022-12-14T12:20:57.970Z,101106.94
2022-12-14T12:25:57.014Z,101097.22
2022-12-14T12:30:59.419Z,101073.34
2022-12-14T12:36:02.045Z,101105.97
2022-12-14T12:41:06.127Z,101104.16
2022-12-14T12:46:11.523Z,101088.69
2022-12-14T12:51:14.564Z,101094.69
2022-12-14T12:56:16.571Z,101064.75
2022-12-14T13:01:24.032Z,101047.16
2022-12-14T13:06:24.636Z,101024.91
2022-12-14T13:11:27.003Z,101070.53
2022-12-14T13:16:32.188Z,101041.72
2022-12-14T13:21:32.533Z,101094.75
2022-12-14T13:26:57.670Z,101095.53
2022-12-14T13:32:04.147Z,101081.19
2022-12-14T13:37:17.643Z,101100.81
2022-12-14T13:42:24.613Z,101067.47
2022-12-14T13:47:28.684Z,101038.69
2022-12-14T13:52:38.029Z,101065.31
2022-12-14T13:57:50.602Z,101003.25
2022-12-14T14:02:52.982Z,101077.72
2022-12-14T14:07:52.819Z,101076.63
2022-12-14T14:12:49.738Z,101025.31
2022-12-14T14:17:49.251Z,101059.88
2022-12-14T14:23:40.941Z,101055.75
2022-12-14T14:28:38.582Z,101013.34
2022-12-14T14:33:46.543Z,101038.13
2022-12-14T14:38:45.560Z,101045.09
2022-12-14T14:43:50.152Z,101045.78
2022-12-14T14:48:52.688Z,101028.63
2022-12-14T14:55:10.786Z,101034.66
2022-12-14T14:59:51.186Z,101033.28
2022-12-14T15:04:51.613Z,101036.72
2022-12-14T15:09:57.524Z,101003.28
2022-12-14T15:14:59.872Z,101017.88
2022-12-14T15:19:58.051Z,101000.59
2022-12-14T15:24:58.602Z,100975.72
2022-12-14T15:30:01.355Z,100939.84
2022-12-14T15:35:01.603Z,100958.56
2022-12-14T15:40:06.159Z,100939.72
2022-12-14T15:45:13.352Z,100970.44
2022-12-14T15:50:16.396Z,100949.78
2022-12-14T15:55:25.999Z,100919.63
2022-12-14T16:00:22.851Z,100943.09
2022-12-14T16:05:23.038Z,100929.34
2022-12-14T16:10:24.753Z,100931.91
2022-12-14T16:15:27.211Z,100957.69
2022-12-14T16:20:26.711Z,100958.47
2022-12-14T16:25:24.346Z,100940.22
2022-12-14T16:30:30.788Z,100925.75
2022-12-14T16:35:28.069Z,100964.44
2022-12-14T16:40:31.924Z,100904.94
2022-12-14T16:46:01.187Z,100946.78
2022-12-14T16:51:18.619Z,100911.78
2022-12-14T16:56:22.292Z,100941.53
2022-12-14T17:01:20.336Z,100953.50
2022-12-14T17:06:22.863Z,100961.69
2022-12-14T17:11:20.820Z,100939.19
2022-12-14T17:16:24.390Z,100905.84
2022-12-14T17:21:26.764Z,100904.41
2022-12-14T17:26:26.837Z,100907.91
2022-12-14T17:31:27.340Z,100940.44
2022-12-14T17:36:25.427Z,100926.75
2022-12-14T17:41:25.963Z,100966.81
2022-12-14T17:46:23.080Z,100968.16
2022-12-14T17:51:24.707Z,100950.50
2022-12-14T17:56:21.991Z,100949.06
2022-12-14T18:01:22.550Z,100954.06
2022-12-14T18:06:19.889Z,100933.00
2022-12-14T18:11:20.066Z,100950.22
2022-12-14T18:16:19.887Z,100943.31
2022-12-14T18:21:20.556Z,100894.03
2022-12-14T18:26:20.426Z,100929.66
2022-12-14T18:31:23.917Z,100896.72
2022-12-14T18:36:22.145Z,100899.78
2022-12-14T18:41:21.469Z,100912.16
2022-12-14T18:46:18.642Z,100908.31
2022-12-14T18:51:22.605Z,100873.47
2022-12-14T18:56:21.769Z,100864.81
2022-12-14T19:01:20.971Z,100880.94
2022-12-14T19:06:43.597Z,100864.44
2022-12-14T19:11:41.105Z,100881.66
2022-12-14T19:16:38.952Z,100858.69
2022-12-14T19:21:36.009Z,100855.34
2022-12-14T19:26:33.045Z,100847.75
2022-12-14T19:31:30.764Z,100761.00
2022-12-14T19:36:29.181Z,100791.69
2022-12-14T19:41:30.781Z,100673.31
2022-12-14T19:46:28.049Z,100696.00
2022-12-14T19:51:25.925Z,100736.34
2022-12-14T19:56:25.846Z,100724.94
2022-12-14T20:01:23.804Z,100664.72
2022-12-14T20:06:20.939Z,100750.50
2022-12-14T20:11:21.098Z,100762.44
2022-12-14T20:16:19.231Z,100750.13
2022-12-14T20:21:22.417Z,100706.59
2022-12-14T20:26:22.109Z,100716.50
2022-12-14T20:31:20.227Z,100752.94
2022-12-14T20:36:18.434Z,100750.06
2022-12-14T20:41:16.606Z,100757.44
2022-12-14T20:46:27.483Z,100745.38
2022-12-14T20:51:24.544Z,100757.34
2022-12-14T20:56:21.566Z,100659.94
2022-12-14T21:01:20.231Z,100738.19
2022-12-14T21:06:20.601Z,100693.81
2022-12-14T21:11:37.354Z,100717.38
2022-12-14T21:16:34.534Z,100638.50
2022-12-14T21:21:32.216Z,100679.69
2022-12-14T21:26:29.198Z,100689.50
2022-12-14T21:31:26.147Z,100650.19
2022-12-14T21:36:22.988Z,100671.50
2022-12-14T21:41:38.552Z,100663.09
2022-12-14T21:46:36.368Z,100579.41
2022-12-14T21:51:33.774Z,100631.06
2022-12-14T21:56:50.923Z,100639.41
2022-12-14T22:01:48.476Z,100614.09
2022-12-14T22:06:45.827Z,100603.44
2022-12-14T22:11:43.503Z,100559.97
2022-12-14T22:16:44.259Z,100550.50
2022-12-14T22:21:41.651Z,100576.50
2022-12-14T22:26:39.461Z,100539.94
2022-12-14T22:31:41.335Z,100568.00
2022-12-14T22:36:38.321Z,100418.06
2022-12-14T22:41:36.217Z,100523.84
2022-12-14T22:46:33.564Z,100549.66
2022-12-14T22:51:31.236Z,100555.69
2022-12-14T22:56:32.396Z,100461.16
2022-12-14T23:01:30.502Z,100528.66
2022-12-14T23:06:28.205Z,100479.91
2022-12-14T23:11:43.546Z,100516.47
2022-12-14T23:16:58.503Z,100488.25
2022-12-14T23:22:13.162Z,100498.53
2022-12-14T23:27:28.951Z,100501.09
2022-12-14T23:32:43.543Z,100464.19
2022-12-14T23:37:58.023Z,100434.84
2022-12-14T23:43:13.582Z,100449.53
2022-12-14T23:48:28.953Z,100429.75
2022-12-14T23:53:44.152Z,100431.81
2022-12-14T23:59:08.176Z,100469.19
